Jacksonville, IL (62650)

12:15 AM CST on February 08, 2016 (GMT -0600)
Book Lane | | Change Station
CLOSE
Current Station
Personal Weather Station
Location: Jacksonville, IL
Elevation: 663 ft
Nearby Weather Stations

Elev 663 ft 39.73 °N, 90.26 °W | Updated 4 seconds ago

Overcast
Overcast
36.0 °F
Feels Like 33 °F
N
4.2
Wind Variable Wind from West
Gusts 7.4 mph

Today
High -- | Low -- °F
--% Chance of Precip.
Yesterday
High -- | Low -- °F
Precip. -- in
Pressure 29.80 in
Visibility 10.0 miles
Clouds Overcast 10000 ft
Windchill 33 °F
Dew Point 29 °F
Humidity 75%
Rainfall 0.00 in
Snow Depth Not available.
7:02 AM 5:28 PM
Waning Crescent, 0% visible
METAR KIJX 080555Z AUTO 26010KT 10SM OVC100 03/00 A2980 RMK AO2 T00321001 10073 20022 401070022
Pressure 29.80 in
Visibility 10.0 miles
Clouds Overcast 10000 ft
Windchill 33 °F
Dew Point 29 °F
Humidity 75%
Rainfall 0.00 in
Snow Depth Not available.
7:02 AM 5:28 PM
Waning Crescent, 0% visible
METAR KIJX 080555Z AUTO 26010KT 10SM OVC100 03/00 A2980 RMK AO2 T00321001 10073 20022 401070022

10-Day Weather Forecast

Almanac

Astronomy

Feb. 08, 2016 Rise Set
Actual Time
Civil Twilight
Nautical Twilight
Astronomical Twilight
Moon
Length of Visible Light
Length of Day
Tomorrow will be .
, % of the Moon is Illuminated

Today's Extremes

State Highs State Lows

Community

WunderPhotos

Upload Photos

1,891,393 photos uploaded!

WunderBlog® & News

Nearby

Air Quality

  Air Quality AQ Index Pollutant
Not available.

Snow Depth

Station Depth Elevation

Earthquake Activity

City Distance Mag. Time & Date
Minimum magnitude displayed is 2.5.

Coastal Water Temperatures

Place Temperature

Stations

Nearby Weather Stations

Station Location Temp. Windchill Dew Point Humidity Wind Precip. Elev Updated Type
                   

Watches & Warnings

There are currently no watches in effect.